Westwood Robson — A8PD8 — position and weather

sailwx.info

Track history (hours):
 
Tides and Currents Weather Stations Pressure Air Temp Water Temp Dewpoint Dewpoint Depression Visibility Wind Speed Wind Dir Waves Ship Positions

Westwood Robson

Last reported at 2017-Nov-02 17:42 UTC. Time now 2017-Dec-11 11:22 UTC.
Position N 32°35' W 117°36'.
Warning: this ship's position is 38 days out of date.

Length 209 m; draft 9.4 m.

Type: Ship (hazmat cat A). MMSI: 636017154.

Date/timePositionNaut miles runAvg speedWind from/ knotsBaromVisibWave heightAir tempDewpointWater temp
2017-Nov-02 17:42N 32°35' W 117°36'1013.8
2017-Nov-02 16:57N 32°44' W 117°42'714.2
2017-Nov-02 16:29N 32°49' W 117°47'913.9
2017-Nov-02 15:52N 32°56' W 117°52'513.9
2017-Nov-02 15:30N 33°01' W 117°56'94 1.9
2017-Oct-31 14:01N 34°09' W 119°12'0 0.0
2017-Oct-31 13:35N 34°09' W 119°12'0 0.1
2017-Oct-31 13:30N 34°09' W 119°12'2 4.0
2017-Oct-31 13:00N 34°07' W 119°14'4 7.2
2017-Oct-31 12:30N 34°04' W 119°13'610.9
2017-Oct-31 11:59N 34°01' W 119°08'510.8
2017-Oct-31 11:30N 33°58' W 119°02'510.9
2017-Oct-31 11:00N 33°56' W 118°57'510.9
2017-Oct-31 10:30N 33°53' W 118°51'611.0
2017-Oct-31 10:00N 33°50' W 118°45'510.9
2017-Oct-31 09:30N 33°47' W 118°39'1011.0
2017-Oct-31 08:38N 33°43' W 118°29'3910.0
2017-Oct-31 04:44N 33°13' W 117°60'311.0
2017-Oct-31 04:30N 33°10' W 117°59'611.1
2017-Oct-31 03:56N 33°04' W 117°56'511.2
2017-Oct-31 03:30N 32°60' W 117°54'511.1
2017-Oct-31 03:00N 32°55' W 117°51'610.9
2017-Oct-31 02:29N 32°50' W 117°48'511.0
2017-Oct-31 02:00N 32°45' W 117°45'1011.2
2017-Oct-31 01:06N 32°36' W 117°40'111.3
2017-Oct-31 01:00N 32°35' W 117°39'611.7
2017-Oct-31 00:30N 32°29' W 117°37'  
Track history (hours):
 
Tides and Currents Weather Stations Pressure Air Temp Water Temp Dewpoint Dewpoint Depression Visibility Wind Speed Wind Dir Waves Ship Positions

Westwood Robson

Last reported at 2017-Nov-02 17:42 UTC. Time now 2017-Dec-11 11:22 UTC.
Position N 32°35' W 117°36'.
Warning: this ship's position is 38 days out of date.

Length 209 m; draft 9.4 m.

Type: Ship (hazmat cat A). MMSI: 636017154.

Date/timePositionNaut miles runAvg speedWind from/ knotsBaromVisibWave heightAir tempDewpointWater temp
2017-Nov-02 17:42N 32°35' W 117°36'1013.8
2017-Nov-02 16:57N 32°44' W 117°42'714.2
2017-Nov-02 16:29N 32°49' W 117°47'913.9
2017-Nov-02 15:52N 32°56' W 117°52'513.9
2017-Nov-02 15:30N 33°01' W 117°56'94 1.9
2017-Oct-31 14:01N 34°09' W 119°12'0 0.0
2017-Oct-31 13:35N 34°09' W 119°12'0 0.1
2017-Oct-31 13:30N 34°09' W 119°12'2 4.0
2017-Oct-31 13:00N 34°07' W 119°14'4 7.2
2017-Oct-31 12:30N 34°04' W 119°13'610.9
2017-Oct-31 11:59N 34°01' W 119°08'510.8
2017-Oct-31 11:30N 33°58' W 119°02'510.9
2017-Oct-31 11:00N 33°56' W 118°57'510.9
2017-Oct-31 10:30N 33°53' W 118°51'611.0
2017-Oct-31 10:00N 33°50' W 118°45'510.9
2017-Oct-31 09:30N 33°47' W 118°39'1011.0
2017-Oct-31 08:38N 33°43' W 118°29'3910.0
2017-Oct-31 04:44N 33°13' W 117°60'311.0
2017-Oct-31 04:30N 33°10' W 117°59'611.1
2017-Oct-31 03:56N 33°04' W 117°56'511.2
2017-Oct-31 03:30N 32°60' W 117°54'511.1
2017-Oct-31 03:00N 32°55' W 117°51'610.9
2017-Oct-31 02:29N 32°50' W 117°48'511.0
2017-Oct-31 02:00N 32°45' W 117°45'1011.2
2017-Oct-31 01:06N 32°36' W 117°40'111.3
2017-Oct-31 01:00N 32°35' W 117°39'611.7
2017-Oct-31 00:30N 32°29' W 117°37'  

Dump ship's entire track history